Time;durP1;ratioP1;P1;durP2;ratioP2;P2;SDS_P1;SDS_P2;PMS_P1;PMS_P2;Temp;Humidity;BMP_temperature;BMP_pressure;BME280_temperature;BME280_humidity;BME280_pressure;Samples;Min_cycle;Max_cycle;Signal;HPM_P1;HPM_P2
2022/12/04 00:01:11;;;;;;;31.77;14.85;;;;;;;;;;9988900;28;20101;-69
2022/12/04 00:06:08;;;;;;;26.35;14.57;;;;;;;;;;9990538;28;20056;-68
2022/12/04 00:11:06;;;;;;;26.55;16.15;;;;;;;;;;9990465;28;20461;-68
2022/12/04 00:16:00;;;;;;;35.83;15.53;;;;;;;;;;9990113;28;20054;-68
2022/12/04 00:20:54;;;;;;;24.20;14.38;;;;;;;;;;9998341;28;20510;-68
2022/12/04 00:25:48;;;;;;;24.55;17.35;;;;;;;;;;9989423;28;20061;-68
2022/12/04 00:30:44;;;;;;;28.35;19.20;;;;;;;;;;9990171;28;20133;-68
2022/12/04 00:35:36;;;;;;;27.73;17.35;;;;;;;;;;9989217;28;20129;-68
2022/12/04 00:40:30;;;;;;;29.27;18.23;;;;;;;;;;9989527;28;20046;-69
2022/12/04 00:45:24;;;;;;;22.52;16.15;;;;;;;;;;9988935;28;20137;-68
2022/12/04 00:50:18;;;;;;;21.90;16.67;;;;;;;;;;9988929;28;20057;-69
2022/12/04 00:55:12;;;;;;;19.48;14.80;;;;;;;;;;9989659;28;20050;-68
2022/12/04 01:00:08;;;;;;;23.75;16.42;;;;;;;;;;9988287;28;20100;-68
2022/12/04 01:05:03;;;;;;;21.27;15.40;;;;;;;;;;9982570;28;20091;-68
2022/12/04 01:09:57;;;;;;;19.35;15.70;;;;;;;;;;9988677;28;20121;-69
2022/12/04 01:14:50;;;;;;;20.38;14.68;;;;;;;;;;9988484;28;20512;-68
2022/12/04 01:19:44;;;;;;;20.13;14.68;;;;;;;;;;9988213;28;20060;-68
2022/12/04 01:24:37;;;;;;;19.30;15.80;;;;;;;;;;9987607;28;20465;-68
2022/12/04 01:29:30;;;;;;;16.92;12.98;;;;;;;;;;9984740;28;20046;-69
2022/12/04 01:34:24;;;;;;;13.40;11.18;;;;;;;;;;9987943;28;20046;-68
2022/12/04 01:39:17;;;;;;;8.90;7.45;;;;;;;;;;9987956;28;20528;-68
2022/12/04 01:44:15;;;;;;;7.40;6.70;;;;;;;;;;9987964;28;20128;-69
2022/12/04 01:49:14;;;;;;;8.98;6.80;;;;;;;;;;9981438;28;20050;-68
2022/12/04 01:54:29;;;;;;;5.90;5.40;;;;;;;;;;9986660;28;20061;-68
2022/12/04 01:59:27;;;;;;;5.05;4.50;;;;;;;;;;9986755;28;20050;-69
2022/12/04 02:04:21;;;;;;;6.57;4.55;;;;;;;;;;9985871;28;20077;-68
2022/12/04 02:09:15;;;;;;;5.55;5.05;;;;;;;;;;9987219;28;20058;-69
2022/12/04 02:14:32;;;;;;;6.80;6.20;;;;;;;;;;9983602;28;20066;-68
2022/12/04 02:19:46;;;;;;;6.10;5.60;;;;;;;;;;9986901;28;20101;-69
2022/12/04 02:24:57;;;;;;;6.20;5.55;;;;;;;;;;9982192;28;20054;-68
2022/12/04 02:30:03;;;;;;;6.60;5.70;;;;;;;;;;9986515;28;20125;-68
2022/12/04 02:35:12;;;;;;;6.57;5.45;;;;;;;;;;9980476;28;20077;-68
2022/12/04 02:40:22;;;;;;;5.97;5.47;;;;;;;;;;9993349;28;20042;-69
2022/12/04 02:45:31;;;;;;;6.10;5.60;;;;;;;;;;9992974;28;20133;-68
2022/12/04 02:50:32;;;;;;;5.70;5.20;;;;;;;;;;9989082;28;20072;-69
2022/12/04 02:55:50;;;;;;;4.60;4.20;;;;;;;;;;9982867;28;20067;-69
2022/12/04 03:00:46;;;;;;;3.90;3.60;;;;;;;;;;9991865;28;20133;-69
2022/12/04 03:05:56;;;;;;;4.30;3.47;;;;;;;;;;9991563;28;20046;-68
2022/12/04 03:10:53;;;;;;;2.83;2.63;;;;;;;;;;9993322;28;20050;-69
2022/12/04 03:15:51;;;;;;;3.13;2.72;;;;;;;;;;9989556;28;20058;-68
2022/12/04 03:20:47;;;;;;;3.17;2.88;;;;;;;;;;9992657;28;20058;-68
2022/12/04 03:26:42;;;;;;;3.13;2.88;;;;;;;;;;9991457;28;20066;-68
2022/12/04 03:32:13;;;;;;;3.17;2.88;;;;;;;;;;9959658;28;20105;-68
2022/12/04 03:37:09;;;;;;;3.15;2.95;;;;;;;;;;9987082;28;20516;-68
2022/12/04 03:42:17;;;;;;;3.10;2.88;;;;;;;;;;9981013;28;20121;-68
2022/12/04 03:47:20;;;;;;;2.97;2.78;;;;;;;;;;9991811;28;20046;-68
2022/12/04 03:52:19;;;;;;;2.97;2.72;;;;;;;;;;9990150;28;20108;-69
2022/12/04 03:57:19;;;;;;;3.35;3.15;;;;;;;;;;9991424;28;20054;-68
2022/12/04 04:02:15;;;;;;;3.08;2.88;;;;;;;;;;9989754;28;20038;-69
2022/12/04 04:07:37;;;;;;;3.05;2.85;;;;;;;;;;9975400;28;20098;-68
2022/12/04 04:12:35;;;;;;;2.42;2.20;;;;;;;;;;9985183;28;20057;-69
2022/12/04 04:29:05;;;;;;;2.30;2.20;;;;;;;;;;9983118;28;20108;-69
2022/12/04 04:34:25;;;;;;;2.13;2.03;;;;;;;;;;9973237;28;20054;-69
2022/12/04 04:39:41;;;;;;;2.92;2.58;;;;;;;;;;9990008;28;20085;-69
2022/12/04 04:45:04;;;;;;;2.75;2.50;;;;;;;;;;9989339;28;20054;-69
2022/12/04 04:50:00;;;;;;;2.45;2.25;;;;;;;;;;9985840;28;20046;-68
2022/12/04 04:54:55;;;;;;;3.70;3.40;;;;;;;;;;9987242;28;20120;-68
2022/12/04 04:59:49;;;;;;;5.25;4.07;;;;;;;;;;9988882;28;20042;-69
2022/12/04 05:05:01;;;;;;;3.50;3.20;;;;;;;;;;9988836;28;20585;-69
2022/12/04 05:10:34;;;;;;;4.65;4.28;;;;;;;;;;9988690;28;20047;-69
2022/12/04 05:15:28;;;;;;;3.83;3.53;;;;;;;;;;9988789;28;20161;-69
2022/12/04 05:20:22;;;;;;;3.90;3.60;;;;;;;;;;9985671;28;20070;-69
2022/12/04 05:25:36;;;;;;;3.25;3.05;;;;;;;;;;9988244;28;20141;-71
2022/12/04 05:30:31;;;;;;;4.60;4.20;;;;;;;;;;9988189;28;20445;-69
2022/12/04 05:35:24;;;;;;;4.15;3.85;;;;;;;;;;9980258;28;20109;-69
2022/12/04 05:40:17;;;;;;;4.10;3.75;;;;;;;;;;9978208;28;20108;-68
2022/12/04 05:45:10;;;;;;;4.68;4.28;;;;;;;;;;9988144;28;20070;-68
2022/12/04 05:50:07;;;;;;;4.50;4.10;;;;;;;;;;9988064;28;20053;-69
2022/12/04 05:55:01;;;;;;;4.32;4.03;;;;;;;;;;9987320;28;20046;-69
2022/12/04 05:59:55;;;;;;;4.82;4.53;;;;;;;;;;9987514;28;20125;-68
2022/12/04 06:04:50;;;;;;;4.30;4.00;;;;;;;;;;9987418;28;20057;-69
2022/12/04 06:09:44;;;;;;;4.22;3.92;;;;;;;;;;9987395;28;20054;-69
2022/12/04 06:14:38;;;;;;;4.40;4.00;;;;;;;;;;9993174;28;20064;-69
2022/12/04 06:19:32;;;;;;;3.80;3.50;;;;;;;;;;9989819;28;20089;-69
2022/12/04 06:24:26;;;;;;;3.90;3.60;;;;;;;;;;9995093;28;20058;-69
2022/12/04 06:29:19;;;;;;;4.32;4.03;;;;;;;;;;9993211;28;20112;-69
2022/12/04 06:34:13;;;;;;;3.47;3.22;;;;;;;;;;9994376;28;20090;-69
2022/12/04 06:39:08;;;;;;;4.10;3.40;;;;;;;;;;9992775;28;20058;-69
2022/12/04 06:44:10;;;;;;;3.88;3.58;;;;;;;;;;9981764;28;20133;-69
2022/12/04 06:49:04;;;;;;;3.80;3.50;;;;;;;;;;9994567;28;20065;-69
2022/12/04 06:53:58;;;;;;;3.90;3.60;;;;;;;;;;9989127;28;20133;-69
2022/12/04 06:58:53;;;;;;;3.67;3.42;;;;;;;;;;9990761;28;20540;-69
2022/12/04 07:03:47;;;;;;;4.60;4.20;;;;;;;;;;9993700;28;20101;-69
2022/12/04 07:08:45;;;;;;;3.67;3.38;;;;;;;;;;9991193;28;20058;-69
2022/12/04 07:13:38;;;;;;;4.55;3.65;;;;;;;;;;9993077;28;20445;-70
2022/12/04 07:18:33;;;;;;;3.60;3.30;;;;;;;;;;9991511;28;20219;-69
2022/12/04 07:23:27;;;;;;;3.72;3.42;;;;;;;;;;9991896;28;20054;-69
2022/12/04 07:28:21;;;;;;;3.97;3.67;;;;;;;;;;9992928;28;20046;-69
2022/12/04 07:33:15;;;;;;;4.00;3.60;;;;;;;;;;9992461;28;20077;-69
2022/12/04 07:38:09;;;;;;;3.97;3.67;;;;;;;;;;9990334;28;20438;-68
2022/12/04 07:43:03;;;;;;;3.97;3.67;;;;;;;;;;9992418;28;20473;-68
2022/12/04 07:47:57;;;;;;;4.28;3.97;;;;;;;;;;9976969;28;20465;-68
2022/12/04 07:52:51;;;;;;;4.45;4.10;;;;;;;;;;9991692;28;20070;-68
2022/12/04 07:57:45;;;;;;;4.30;4.00;;;;;;;;;;9991471;28;20536;-69
2022/12/04 08:02:39;;;;;;;4.00;3.70;;;;;;;;;;9990889;28;20046;-68
2022/12/04 08:07:34;;;;;;;4.05;3.75;;;;;;;;;;9991373;28;20066;-69
2022/12/04 08:12:28;;;;;;;4.60;4.20;;;;;;;;;;9991034;28;20505;-68
2022/12/04 08:17:21;;;;;;;4.38;3.97;;;;;;;;;;9990415;28;20066;-69
2022/12/04 08:22:14;;;;;;;4.57;4.18;;;;;;;;;;9990569;28;20072;-69
2022/12/04 08:27:15;;;;;;;6.18;5.05;;;;;;;;;;9986564;28;20070;-69
2022/12/04 08:32:08;;;;;;;3.90;3.60;;;;;;;;;;9990204;28;20076;-69
2022/12/04 08:37:02;;;;;;;3.88;3.58;;;;;;;;;;9988328;28;20461;-69
2022/12/04 08:41:57;;;;;;;3.92;3.63;;;;;;;;;;9989950;28;20061;-68
2022/12/04 08:46:50;;;;;;;4.20;3.90;;;;;;;;;;9989605;28;20397;-69
2022/12/04 08:51:44;;;;;;;5.28;4.00;;;;;;;;;;9980304;28;20468;-68
2022/12/04 08:56:38;;;;;;;3.80;3.50;;;;;;;;;;9989480;28;20101;-69
2022/12/04 09:01:31;;;;;;;4.15;3.85;;;;;;;;;;9980089;28;20051;-69
2022/12/04 09:06:25;;;;;;;3.65;3.38;;;;;;;;;;9987454;28;20054;-69
2022/12/04 09:11:20;;;;;;;3.10;2.90;;;;;;;;;;9989140;28;20053;-69
2022/12/04 09:16:19;;;;;;;3.58;3.28;;;;;;;;;;9987232;28;20073;-69
2022/12/04 09:21:20;;;;;;;3.00;2.80;;;;;;;;;;9998699;28;20054;-69
2022/12/04 09:26:21;;;;;;;3.75;3.20;;;;;;;;;;9987287;28;20062;-68
2022/12/04 09:31:15;;;;;;;3.53;3.22;;;;;;;;;;9980619;28;20043;-69
2022/12/04 09:36:14;;;;;;;3.00;2.80;;;;;;;;;;9987758;28;20054;-68
2022/12/04 09:41:18;;;;;;;2.60;2.40;;;;;;;;;;9986335;28;20414;-68
2022/12/04 09:46:18;;;;;;;2.88;2.67;;;;;;;;;;9986594;28;20120;-68
2022/12/04 09:51:17;;;;;;;3.47;3.22;;;;;;;;;;9985696;28;20054;-69
2022/12/04 09:56:11;;;;;;;;;;;;;;;;;;9987863;28;20464;-69
2022/12/04 10:01:04;;;;;;;2.95;2.70;;;;;;;;;;9978822;28;20391;-68
2022/12/04 10:06:07;;;;;;;3.95;2.95;;;;;;;;;;9986943;28;20133;-68
2022/12/04 10:11:22;;;;;;;2.63;2.42;;;;;;;;;;9987035;28;20057;-68
2022/12/04 10:16:43;;;;;;;2.60;2.40;;;;;;;;;;9987063;28;20082;-69
2022/12/04 10:21:45;;;;;;;2.33;2.13;;;;;;;;;;9986303;28;20451;-68
2022/12/04 10:26:43;;;;;;;2.10;1.90;;;;;;;;;;9986270;28;20116;-68
2022/12/04 10:31:37;;;;;;;2.45;2.25;;;;;;;;;;9987114;28;20125;-68
2022/12/04 10:36:33;;;;;;;1.75;1.65;;;;;;;;;;9982996;28;20046;-68
2022/12/04 10:41:59;;;;;;;1.90;1.80;;;;;;;;;;9986506;28;20094;-68
2022/12/04 10:46:57;;;;;;;1.80;1.70;;;;;;;;;;10013013;28;20050;-69
2022/12/04 10:51:51;;;;;;;;;;;;;;;;;;9983663;28;20047;-69
2022/12/04 10:57:10;;;;;;;2.63;2.42;;;;;;;;;;9986363;28;19922;-69
2022/12/04 11:02:14;;;;;;;6.50;5.90;;;;;;;;;;9988688;28;20113;-68
2022/12/04 11:07:18;;;;;;;2.97;2.70;;;;;;;;;;9991969;28;20046;-69
2022/12/04 11:12:18;;;;;;;3.03;2.83;;;;;;;;;;9991224;28;20109;-68
2022/12/04 11:17:17;;;;;;;2.78;2.58;;;;;;;;;;9992141;28;20069;-69
2022/12/04 11:22:13;;;;;;;3.65;3.35;;;;;;;;;;9990697;28;20045;-69
2022/12/04 11:27:18;;;;;;;4.50;4.05;;;;;;;;;;9991595;28;20055;-68
2022/12/04 11:32:34;;;;;;;3.55;3.25;;;;;;;;;;9990587;28;20046;-69
2022/12/04 11:37:31;;;;;;;3.13;2.90;;;;;;;;;;9991116;28;20129;-68
2022/12/04 11:42:29;;;;;;;2.65;2.45;;;;;;;;;;9991202;28;20429;-68
2022/12/04 11:47:31;;;;;;;3.38;3.08;;;;;;;;;;9981917;28;20061;-68
2022/12/04 11:52:30;;;;;;;2.70;2.50;;;;;;;;;;9988285;28;20058;-68
2022/12/04 11:57:52;;;;;;;5.07;4.57;;;;;;;;;;9991184;28;20050;-69
2022/12/04 12:03:28;;;;;;;3.00;2.70;;;;;;;;;;9994547;28;20053;-69
2022/12/04 12:08:29;;;;;;;4.70;4.20;;;;;;;;;;9981948;28;20054;-69
2022/12/04 12:13:51;;;;;;;39.35;26.75;;;;;;;;;;9989861;28;20086;-69
2022/12/04 12:19:12;;;;;;;5.13;4.55;;;;;;;;;;9990510;28;20042;-68
2022/12/04 12:24:32;;;;;;;2.20;2.10;;;;;;;;;;9990796;28;20061;-68
2022/12/04 12:29:47;;;;;;;2.85;2.53;;;;;;;;;;9989309;28;20052;-68
2022/12/04 12:34:43;;;;;;;2.15;2.05;;;;;;;;;;9988765;28;20058;-68
2022/12/04 12:39:46;;;;;;;3.15;2.83;;;;;;;;;;9990074;28;20112;-69
2022/12/04 12:44:53;;;;;;;2.08;1.98;;;;;;;;;;9985450;28;20062;-69
2022/12/04 12:49:56;;;;;;;2.10;2.00;;;;;;;;;;9986013;28;20042;-68
2022/12/04 12:54:56;;;;;;;2.28;2.17;;;;;;;;;;9988254;28;20089;-68
2022/12/04 12:59:52;;;;;;;2.50;2.30;;;;;;;;;;9989488;28;20069;-69
2022/12/04 13:04:51;;;;;;;2.28;2.00;;;;;;;;;;9988065;28;20117;-69
2022/12/04 13:09:48;;;;;;;2.25;2.15;;;;;;;;;;9987490;28;20057;-69
2022/12/04 13:14:41;;;;;;;3.05;2.75;;;;;;;;;;9987189;28;20062;-68
2022/12/04 13:19:43;;;;;;;;;;;;;;;;;;9989048;28;20054;-69
2022/12/04 13:25:08;;;;;;;2.88;2.63;;;;;;;;;;10001929;28;19925;-68
2022/12/04 13:30:14;;;;;;;2.55;2.35;;;;;;;;;;9987494;28;20497;-69
2022/12/04 13:35:34;;;;;;;2.65;2.45;;;;;;;;;;9987631;28;20054;-69
2022/12/04 13:40:42;;;;;;;2.60;2.40;;;;;;;;;;9988243;28;20100;-69
2022/12/04 13:45:37;;;;;;;2.97;2.72;;;;;;;;;;9987670;28;20552;-68
2022/12/04 13:50:35;;;;;;;3.20;2.97;;;;;;;;;;9983947;28;20054;-68
2022/12/04 13:55:37;;;;;;;2.67;2.47;;;;;;;;;;9984375;28;20058;-68
2022/12/04 14:00:34;;;;;;;2.20;2.10;;;;;;;;;;9986627;28;20050;-68
2022/12/04 14:05:32;;;;;;;3.00;2.70;;;;;;;;;;9987807;28;20054;-69
2022/12/04 14:10:27;;;;;;;2.65;2.45;;;;;;;;;;9984330;28;20418;-69
2022/12/04 14:15:23;;;;;;;2.97;2.78;;;;;;;;;;9984552;28;20059;-69
2022/12/04 14:20:26;;;;;;;2.67;2.47;;;;;;;;;;9985646;28;20074;-69
2022/12/04 14:25:23;;;;;;;2.60;2.40;;;;;;;;;;9985318;28;20656;-68
2022/12/04 14:30:28;;;;;;;2.83;2.63;;;;;;;;;;9982771;28;20042;-69
2022/12/04 14:35:23;;;;;;;2.85;2.65;;;;;;;;;;9992027;28;20401;-68
2022/12/04 14:40:38;;;;;;;2.67;2.47;;;;;;;;;;9994304;28;20100;-69
2022/12/04 14:45:43;;;;;;;3.28;3.08;;;;;;;;;;9994354;28;20109;-69
2022/12/04 14:51:04;;;;;;;3.47;3.17;;;;;;;;;;9992933;28;20064;-69
2022/12/04 14:56:22;;;;;;;3.03;2.83;;;;;;;;;;9986554;28;20074;-68
2022/12/04 15:01:25;;;;;;;3.13;2.85;;;;;;;;;;9993606;28;20057;-69
2022/12/04 15:06:30;;;;;;;3.60;3.30;;;;;;;;;;9992891;28;20061;-69
2022/12/04 15:16:37;;;;;;;3.60;3.30;;;;;;;;;;9992945;28;20082;-68
2022/12/04 15:21:37;;;;;;;5.43;4.93;;;;;;;;;;9993321;28;20062;-69
2022/12/04 15:26:32;;;;;;;6.03;5.40;;;;;;;;;;9993150;28;20054;-69
2022/12/04 15:31:38;;;;;;;6.68;6.07;;;;;;;;;;9992241;28;20421;-69
2022/12/04 15:37:02;;;;;;;9.55;8.55;;;;;;;;;;9983693;28;20501;-69
2022/12/04 15:42:27;;;;;;;9.77;8.77;;;;;;;;;;9991923;28;20046;-69
2022/12/04 15:47:22;;;;;;;9.93;8.75;;;;;;;;;;9979579;28;20058;-69
2022/12/04 15:52:21;;;;;;;13.25;11.27;;;;;;;;;;9991336;28;20042;-68
2022/12/04 15:57:36;;;;;;;16.15;12.70;;;;;;;;;;9992013;28;20054;-69
2022/12/04 16:02:35;;;;;;;9.90;8.90;;;;;;;;;;9990141;28;20050;-69
2022/12/04 16:07:29;;;;;;;10.32;8.95;;;;;;;;;;9990672;28;20126;-69
2022/12/04 16:12:27;;;;;;;8.52;7.82;;;;;;;;;;9991110;28;20104;-69
2022/12/04 16:17:27;;;;;;;9.00;8.10;;;;;;;;;;9990925;28;20057;-69
2022/12/04 16:22:25;;;;;;;7.88;7.18;;;;;;;;;;9988937;28;20513;-69
2022/12/04 16:27:21;;;;;;;9.65;8.75;;;;;;;;;;9980669;28;20494;-69
2022/12/04 16:32:20;;;;;;;12.45;11.32;;;;;;;;;;9985913;28;20073;-69
2022/12/04 16:37:16;;;;;;;10.30;9.30;;;;;;;;;;10019371;28;20093;-69
2022/12/04 16:42:14;;;;;;;8.18;7.47;;;;;;;;;;9984174;28;20061;-69
2022/12/04 16:47:09;;;;;;;9.43;8.63;;;;;;;;;;9983074;28;20058;-68
2022/12/04 16:52:04;;;;;;;10.35;9.35;;;;;;;;;;9988902;28;20050;-70
2022/12/04 16:56:58;;;;;;;12.25;11.13;;;;;;;;;;9986237;28;20046;-69
2022/12/04 17:01:51;;;;;;;14.73;13.43;;;;;;;;;;9985729;28;20050;-70
2022/12/04 17:06:45;;;;;;;53.88;32.45;;;;;;;;;;9984347;28;20077;-70
2022/12/04 17:11:38;;;;;;;54.05;36.17;;;;;;;;;;9987810;28;20047;-69
2022/12/04 17:16:39;;;;;;;38.90;27.50;;;;;;;;;;9986410;28;20065;-69
2022/12/04 17:21:33;;;;;;;13.13;11.85;;;;;;;;;;9988919;28;20049;-69
2022/12/04 17:26:26;;;;;;;12.80;11.38;;;;;;;;;;9987591;28;20145;-70
2022/12/04 17:31:22;;;;;;;12.43;10.60;;;;;;;;;;9984527;28;20062;-69
2022/12/04 17:36:23;;;;;;;12.95;11.52;;;;;;;;;;9978562;28;20042;-69
2022/12/04 17:41:18;;;;;;;14.47;13.07;;;;;;;;;;9989006;28;20553;-69
2022/12/04 17:46:14;;;;;;;13.18;11.88;;;;;;;;;;9987647;28;20054;-69
2022/12/04 17:51:36;;;;;;;15.50;13.88;;;;;;;;;;9980787;28;20525;-69
2022/12/04 17:56:30;;;;;;;19.15;14.25;;;;;;;;;;9986267;28;20473;-69
2022/12/04 18:01:26;;;;;;;14.25;12.60;;;;;;;;;;9981168;28;20062;-69
2022/12/04 18:06:26;;;;;;;20.20;18.10;;;;;;;;;;9978948;28;20557;-69
2022/12/04 18:11:22;;;;;;;17.45;15.65;;;;;;;;;;9994370;28;20054;-69
2022/12/04 18:16:16;;;;;;;12.90;11.50;;;;;;;;;;9995876;28;20066;-69
2022/12/04 18:21:11;;;;;;;10.13;9.13;;;;;;;;;;9995122;28;20050;-69
2022/12/04 18:26:05;;;;;;;15.38;13.88;;;;;;;;;;9995677;28;20073;-69
2022/12/04 18:31:03;;;;;;;15.45;13.60;;;;;;;;;;9994755;28;20472;-69
2022/12/04 18:35:56;;;;;;;14.50;13.10;;;;;;;;;;9995076;28;20050;-69
2022/12/04 18:40:50;;;;;;;19.38;17.27;;;;;;;;;;9993991;28;20081;-69
2022/12/04 18:45:44;;;;;;;25.30;21.20;;;;;;;;;;9993680;28;20073;-69
2022/12/04 18:50:37;;;;;;;19.73;16.70;;;;;;;;;;9994015;28;20062;-69
2022/12/04 18:55:33;;;;;;;17.60;14.68;;;;;;;;;;9993806;28;20089;-69
2022/12/04 19:00:27;;;;;;;26.95;19.95;;;;;;;;;;9993466;28;20561;-69
2022/12/04 19:05:21;;;;;;;32.58;23.63;;;;;;;;;;9993819;28;20537;-69
2022/12/04 19:10:14;;;;;;;72.68;49.85;;;;;;;;;;9993022;28;20058;-69
2022/12/04 19:15:08;;;;;;;21.92;19.08;;;;;;;;;;9983837;28;20053;-69
2022/12/04 19:20:02;;;;;;;25.38;20.10;;;;;;;;;;9992125;28;20046;-69
2022/12/04 19:24:55;;;;;;;36.95;25.45;;;;;;;;;;9990455;28;20535;-69
2022/12/04 19:29:49;;;;;;;24.95;21.67;;;;;;;;;;9992687;28;20133;-69
2022/12/04 19:34:43;;;;;;;21.27;19.00;;;;;;;;;;9992722;28;20050;-69
2022/12/04 19:39:37;;;;;;;25.63;23.02;;;;;;;;;;9992558;28;20096;-69
2022/12/04 19:44:31;;;;;;;21.52;18.95;;;;;;;;;;9992147;28;20046;-69
2022/12/04 19:49:40;;;;;;;20.55;17.70;;;;;;;;;;9991831;28;20078;-69
2022/12/04 19:54:34;;;;;;;22.08;19.30;;;;;;;;;;9991796;28;20514;-69
2022/12/04 19:59:28;;;;;;;23.75;20.73;;;;;;;;;;9991974;28;20058;-69
2022/12/04 20:04:29;;;;;;;22.02;18.40;;;;;;;;;;9985376;28;20093;-69
2022/12/04 20:09:24;;;;;;;23.52;20.77;;;;;;;;;;9991678;28;20104;-69
2022/12/04 20:14:17;;;;;;;20.40;16.63;;;;;;;;;;9990961;28;20051;-69
2022/12/04 20:19:14;;;;;;;18.00;15.70;;;;;;;;;;9990601;28;20050;-69
2022/12/04 20:24:09;;;;;;;16.33;14.27;;;;;;;;;;9991452;28;20503;-69
2022/12/04 20:29:04;;;;;;;19.27;17.17;;;;;;;;;;9987581;28;20529;-68
2022/12/04 20:33:59;;;;;;;17.15;15.43;;;;;;;;;;9987968;28;20058;-69
2022/12/04 20:38:54;;;;;;;19.30;16.90;;;;;;;;;;9990099;28;20058;-69
2022/12/04 20:43:48;;;;;;;19.05;17.02;;;;;;;;;;9989644;28;20054;-69
2022/12/04 20:48:47;;;;;;;30.20;22.50;;;;;;;;;;9989406;28;20042;-69
2022/12/04 20:53:41;;;;;;;28.48;22.50;;;;;;;;;;9989913;28;20406;-69
2022/12/04 20:58:34;;;;;;;34.17;25.25;;;;;;;;;;9989478;28;20042;-69
2022/12/04 21:03:28;;;;;;;18.95;16.67;;;;;;;;;;9988641;28;20050;-69
2022/12/04 21:08:51;;;;;;;18.35;16.08;;;;;;;;;;9989335;28;20402;-69
2022/12/04 21:18:48;;;;;;;21.42;19.13;;;;;;;;;;9988590;28;20108;-69
2022/12/04 21:23:42;;;;;;;23.80;18.05;;;;;;;;;;9988925;28;20062;-69
2022/12/04 21:28:35;;;;;;;20.90;17.48;;;;;;;;;;9988595;28;20054;-69
2022/12/04 21:33:30;;;;;;;30.13;23.90;;;;;;;;;;9988117;28;20138;-69
2022/12/04 21:38:24;;;;;;;18.60;16.65;;;;;;;;;;9988586;28;20137;-69
2022/12/04 21:43:18;;;;;;;14.40;12.98;;;;;;;;;;9986605;28;20056;-69
2022/12/04 21:48:12;;;;;;;16.08;13.25;;;;;;;;;;9988173;28;20058;-69
2022/12/04 21:53:06;;;;;;;17.08;15.20;;;;;;;;;;9988483;28;20081;-69
2022/12/04 21:57:59;;;;;;;20.17;15.85;;;;;;;;;;9987870;28;20062;-69
2022/12/04 22:02:54;;;;;;;16.90;15.10;;;;;;;;;;9987324;28;20051;-69
2022/12/04 22:07:48;;;;;;;18.88;15.38;;;;;;;;;;9982289;28;20519;-69
2022/12/04 22:12:44;;;;;;;18.15;16.23;;;;;;;;;;9988050;28;20493;-70
2022/12/04 22:17:42;;;;;;;14.10;12.10;;;;;;;;;;9987347;28;20046;-69
2022/12/04 22:22:36;;;;;;;15.07;12.20;;;;;;;;;;9986772;28;20521;-69
2022/12/04 22:27:30;;;;;;;15.27;13.18;;;;;;;;;;9987631;28;20581;-69
2022/12/04 22:32:24;;;;;;;13.00;11.63;;;;;;;;;;9982374;28;20050;-68
2022/12/04 22:37:24;;;;;;;14.10;12.40;;;;;;;;;;9984054;28;20054;-68
2022/12/04 22:42:18;;;;;;;15.88;13.88;;;;;;;;;;9987387;28;20073;-69
2022/12/04 22:47:12;;;;;;;17.05;13.23;;;;;;;;;;9978109;28;20046;-68
2022/12/04 22:52:05;;;;;;;14.85;11.55;;;;;;;;;;9987393;28;20449;-69
2022/12/04 22:56:59;;;;;;;19.00;13.23;;;;;;;;;;9992949;28;20422;-68
2022/12/04 23:01:53;;;;;;;16.73;12.88;;;;;;;;;;9993283;28;20081;-69
2022/12/04 23:06:48;;;;;;;14.30;11.65;;;;;;;;;;9992981;28;20117;-68
2022/12/04 23:11:41;;;;;;;14.07;11.40;;;;;;;;;;9993674;28;20058;-69
2022/12/04 23:16:36;;;;;;;14.52;12.07;;;;;;;;;;9986915;28;20054;-69
2022/12/04 23:21:29;;;;;;;12.98;11.23;;;;;;;;;;9988853;28;20457;-69
2022/12/04 23:26:35;;;;;;;14.57;11.00;;;;;;;;;;9993816;28;20058;-68
2022/12/04 23:31:29;;;;;;;12.18;9.75;;;;;;;;;;10003571;28;20046;-69
2022/12/04 23:36:22;;;;;;;13.43;9.63;;;;;;;;;;9992792;28;20074;-68
2022/12/04 23:41:17;;;;;;;11.90;8.88;;;;;;;;;;9992084;28;20125;-68
2022/12/04 23:46:16;;;;;;;11.30;8.02;;;;;;;;;;9992642;28;20058;-68
2022/12/04 23:51:11;;;;;;;13.30;10.02;;;;;;;;;;9989360;28;20061;-68
2022/12/04 23:56:31;;;;;;;16.20;10.70;;;;;;;;;;9992276;28;20054;-68
